Time;durP1;ratioP1;P1;durP2;ratioP2;P2;SDS_P1;SDS_P2;PMS_P1;PMS_P2;Temp;Humidity;BMP_temperature;BMP_pressure;BME280_temperature;BME280_humidity;BME280_pressure;Samples;Min_cycle;Max_cycle;Signal;HPM_P1;HPM_P2
2024/02/28 00:00:10;;;;;;;26.88;17.38;;;;;;;10.03;59.96;94924.94;4242809;27;20050;-69
2024/02/28 00:02:12;;;;;;;22.55;16.35;;;;;;;10.14;59.87;94918.66;4237213;27;20047;-71
2024/02/28 00:04:14;;;;;;;23.27;16.23;;;;;;;10.30;59.80;94918.00;4243747;27;20039;-70
2024/02/28 00:06:17;;;;;;;26.30;17.17;;;;;;;10.40;59.48;94922.16;4242431;27;20072;-71
2024/02/28 00:08:20;;;;;;;24.73;16.33;;;;;;;10.40;59.11;94919.53;4240958;27;20151;-70
2024/02/28 00:10:22;;;;;;;21.35;16.05;;;;;;;10.42;59.26;94922.03;4241878;27;20035;-70
2024/02/28 00:12:26;;;;;;;23.77;17.38;;;;;;;10.45;59.41;94921.72;4234430;27;20043;-68
2024/02/28 00:14:29;;;;;;;26.98;18.00;;;;;;;10.42;59.42;94928.06;4239595;27;20078;-69
2024/02/28 00:16:31;;;;;;;26.10;17.33;;;;;;;10.47;59.40;94927.63;4240985;27;20134;-68
2024/02/28 00:18:33;;;;;;;25.92;17.95;;;;;;;10.55;58.79;94926.88;4241226;27;20085;-68
2024/02/28 00:20:35;;;;;;;29.63;17.50;;;;;;;10.61;59.08;94926.25;4225578;28;20495;-68
2024/02/28 00:22:37;;;;;;;25.88;16.83;;;;;;;10.57;58.54;94925.72;4234949;27;20055;-71
2024/02/28 00:24:39;;;;;;;28.02;17.83;;;;;;;10.58;58.88;94927.38;4220281;28;20055;-70
2024/02/28 00:26:42;;;;;;;23.08;17.10;;;;;;;10.59;58.45;94926.41;4243280;27;20062;-70
2024/02/28 00:28:44;;;;;;;24.42;16.60;;;;;;;10.64;58.47;94929.38;4241345;27;20479;-68
2024/02/28 00:30:46;;;;;;;25.25;16.17;;;;;;;10.66;58.03;94924.81;4242211;27;20053;-69
2024/02/28 00:32:48;;;;;;;22.67;15.70;;;;;;;10.66;58.00;94927.41;4243589;27;20050;-72
2024/02/28 00:34:50;;;;;;;23.85;15.90;;;;;;;10.64;57.80;94928.56;4213533;28;20325;-69
2024/02/28 00:36:52;;;;;;;22.83;14.95;;;;;;;10.62;57.90;94923.47;4220368;28;20104;-69
2024/02/28 00:38:57;;;;;;;24.60;14.90;;;;;;;10.64;57.86;94920.69;4243008;27;20053;-68
2024/02/28 00:40:59;;;;;;;19.67;14.65;;;;;;;10.66;57.72;94931.84;4238053;27;20133;-69
2024/02/28 00:43:01;;;;;;;19.95;15.05;;;;;;;10.62;57.59;94923.47;4220886;28;20051;-69
2024/02/28 00:45:03;;;;;;;24.60;15.05;;;;;;;10.31;57.97;94924.91;4213855;28;20453;-68
2024/02/28 00:47:06;;;;;;;21.27;14.05;;;;;;;10.10;58.58;94933.84;4242830;27;20485;-70
2024/02/28 00:49:07;;;;;;;25.83;13.98;;;;;;;10.01;58.93;94930.31;4223326;28;20047;-67
2024/02/28 00:51:09;;;;;;;20.25;13.13;;;;;;;9.73;58.96;94928.75;4242723;27;20051;-69
2024/02/28 00:53:11;;;;;;;22.10;13.02;;;;;;;9.60;59.46;94926.50;4223978;28;20096;-68
2024/02/28 00:55:13;;;;;;;20.08;13.32;;;;;;;9.55;59.64;94929.56;4239998;27;20122;-70
2024/02/28 00:57:15;;;;;;;18.65;12.88;;;;;;;9.58;59.46;94923.19;4230583;27;20389;-69
2024/02/28 00:59:17;;;;;;;15.85;12.68;;;;;;;9.56;59.26;94933.00;4231913;27;20051;-69
2024/02/28 01:01:21;;;;;;;21.83;12.85;;;;;;;8.99;60.64;94935.72;4237153;27;20070;-69
2024/02/28 01:03:23;;;;;;;17.17;12.57;;;;;;;8.44;62.72;94939.06;4238333;27;20099;-72
2024/02/28 01:05:25;;;;;;;21.48;13.25;;;;;;;8.46;63.08;94941.53;4234111;27;20463;-73
2024/02/28 01:07:27;;;;;;;20.27;13.27;;;;;;;8.67;62.59;94949.16;4239355;27;20053;-69
2024/02/28 01:09:29;;;;;;;21.02;13.85;;;;;;;8.90;62.42;94939.22;4242271;27;20405;-68
2024/02/28 01:11:30;;;;;;;20.88;12.75;;;;;;;9.02;61.77;94933.66;4219945;28;20073;-71
2024/02/28 01:13:32;;;;;;;23.38;13.95;;;;;;;9.15;61.38;94933.34;4235156;27;20055;-69
2024/02/28 01:15:34;;;;;;;21.65;13.40;;;;;;;9.29;60.69;94937.28;4238999;28;20066;-69
2024/02/28 01:17:36;;;;;;;21.35;13.00;;;;;;;9.39;60.63;94931.97;4242048;28;20043;-69
2024/02/28 01:19:38;;;;;;;20.88;13.85;;;;;;;9.46;60.25;94937.44;4242351;28;20444;-69
2024/02/28 01:21:40;;;;;;;18.95;13.48;;;;;;;9.46;60.12;94929.59;4230314;28;20062;-69
2024/02/28 01:23:42;;;;;;;21.48;13.65;;;;;;;9.51;60.07;94935.22;4241321;28;20047;-71
2024/02/28 01:25:44;;;;;;;19.48;13.85;;;;;;;9.54;60.58;94934.94;4221955;28;20491;-68
2024/02/28 01:27:46;;;;;;;24.90;15.93;;;;;;;9.57;60.41;94935.47;4238301;28;20444;-68
2024/02/28 01:29:48;;;;;;;28.38;17.25;;;;;;;9.60;60.35;94935.16;4223403;28;20483;-69
2024/02/28 01:31:51;;;;;;;23.63;15.85;;;;;;;9.64;60.21;94936.50;4223780;28;20092;-68
2024/02/28 01:33:52;;;;;;;22.08;14.82;;;;;;;9.65;59.65;94934.72;4240131;28;20070;-69
2024/02/28 01:35:55;;;;;;;22.33;15.43;;;;;;;9.70;59.72;94942.97;4241479;28;20069;-68
2024/02/28 01:38:00;;;;;;;19.95;14.45;;;;;;;9.73;59.26;94942.66;4236783;28;20071;-69
2024/02/28 01:40:04;;;;;;;20.98;15.25;;;;;;;9.75;59.26;94945.13;4235850;28;20116;-69
2024/02/28 01:42:05;;;;;;;;;;;;;;;9.79;59.20;94941.25;4206819;28;20060;-69
2024/02/28 01:44:07;;;;;;;22.90;14.57;;;;;;;9.80;59.33;94948.13;4240440;28;20394;-69
2024/02/28 01:46:25;;;;;;;27.33;17.05;;;;;;;9.75;59.47;94945.13;4234740;28;20051;-69
2024/02/28 01:48:28;;;;;;;24.08;15.93;;;;;;;9.74;59.99;94951.31;4236435;28;20527;-69
2024/02/28 01:50:29;;;;;;;22.92;15.40;;;;;;;9.76;59.43;94946.75;4222165;28;20158;-70
2024/02/28 01:52:31;;;;;;;22.08;14.90;;;;;;;9.74;60.08;94944.28;4218441;28;20085;-68
2024/02/28 01:54:35;;;;;;;27.80;16.38;;;;;;;9.58;59.71;94949.38;4244566;27;20150;-68
2024/02/28 01:56:37;;;;;;;25.63;16.55;;;;;;;9.50;60.63;94944.03;4219152;28;20062;-69
2024/02/28 01:58:39;;;;;;;26.92;15.98;;;;;;;9.47;60.70;94953.00;4215991;28;20048;-67
2024/02/28 02:00:41;;;;;;;23.50;16.38;;;;;;;9.47;60.73;94953.00;4242540;27;20520;-68
2024/02/28 02:02:43;;;;;;;25.75;16.58;;;;;;;9.43;60.49;94949.84;4215004;28;20477;-69
2024/02/28 02:04:45;;;;;;;26.83;17.38;;;;;;;9.41;61.30;94946.53;4221896;28;20057;-69
2024/02/28 02:06:48;;;;;;;25.52;17.10;;;;;;;9.40;61.01;94958.00;4245052;27;20043;-70
2024/02/28 02:08:50;;;;;;;22.27;15.95;;;;;;;9.47;60.94;94949.56;4246364;27;20043;-70
2024/02/28 02:10:52;;;;;;;23.90;15.50;;;;;;;9.54;60.81;94948.81;4245368;27;20039;-70
2024/02/28 02:12:54;;;;;;;23.95;17.02;;;;;;;9.60;60.13;94950.84;4241646;27;20491;-68
2024/02/28 02:14:56;;;;;;;27.50;17.00;;;;;;;9.64;59.81;94946.16;4226867;28;20047;-68
2024/02/28 02:16:58;;;;;;;25.02;16.42;;;;;;;9.66;60.35;94944.22;4245652;27;20099;-70
2024/02/28 02:19:00;;;;;;;21.83;15.95;;;;;;;9.66;60.08;94940.75;4244905;27;20055;-68
2024/02/28 02:21:05;;;;;;;23.13;16.10;;;;;;;9.71;60.72;94947.22;4244442;27;20131;-71
2024/02/28 02:23:07;;;;;;;21.85;15.23;;;;;;;9.76;60.41;94944.16;4223223;28;20545;-69
2024/02/28 02:25:09;;;;;;;24.33;16.38;;;;;;;9.77;60.27;94941.38;4224321;28;20189;-70
2024/02/28 02:27:11;;;;;;;25.83;15.25;;;;;;;9.82;60.00;94944.38;4244329;27;20120;-68
2024/02/28 02:29:13;;;;;;;22.38;15.95;;;;;;;9.82;59.73;94947.00;4230951;27;20582;-69
2024/02/28 02:31:15;;;;;;;25.65;17.00;;;;;;;9.77;60.46;94941.38;4239671;27;20044;-70
2024/02/28 02:33:17;;;;;;;23.92;17.35;;;;;;;9.76;60.60;94947.56;4240952;27;20085;-70
2024/02/28 02:35:18;;;;;;;26.77;16.58;;;;;;;9.75;59.83;94947.75;4215344;28;20048;-70
2024/02/28 02:37:20;;;;;;;23.23;16.33;;;;;;;9.71;59.96;94955.06;4225842;28;20124;-69
2024/02/28 02:39:22;;;;;;;26.25;16.88;;;;;;;9.73;60.01;94949.69;4245551;27;20094;-70
2024/02/28 02:41:24;;;;;;;22.30;16.70;;;;;;;9.67;60.42;94948.47;4223500;28;20044;-68
2024/02/28 02:43:26;;;;;;;29.08;16.17;;;;;;;9.59;60.72;94953.59;4244038;27;20085;-69
2024/02/28 02:45:28;;;;;;;20.70;16.02;;;;;;;9.51;60.42;94951.75;4245085;27;20047;-68
2024/02/28 02:47:30;;;;;;;22.55;15.55;;;;;;;9.36;61.02;94954.03;4245354;27;20133;-69
2024/02/28 02:49:32;;;;;;;25.05;17.60;;;;;;;9.27;61.82;94947.06;4240276;27;20051;-68
2024/02/28 02:51:34;;;;;;;26.52;16.10;;;;;;;9.28;61.72;94948.69;4241091;27;20333;-69
2024/02/28 02:53:36;;;;;;;27.15;17.00;;;;;;;9.35;61.91;94952.34;4242300;27;20076;-68
2024/02/28 02:55:42;;;;;;;28.55;17.55;;;;;;;9.36;60.92;94947.97;4216716;27;20135;-69
2024/02/28 02:57:44;;;;;;;23.20;18.02;;;;;;;9.45;61.86;94949.69;4236957;27;20428;-68
2024/02/28 02:59:46;;;;;;;27.02;17.30;;;;;;;9.50;60.97;94944.03;4242436;27;20047;-68
2024/02/28 03:01:49;;;;;;;23.70;16.90;;;;;;;9.53;61.30;94946.34;4243041;27;20063;-70
2024/02/28 03:03:52;;;;;;;22.08;16.80;;;;;;;9.58;61.16;94946.75;4243320;27;20050;-69
2024/02/28 03:05:55;;;;;;;23.87;17.43;;;;;;;9.59;60.92;94951.00;4243677;27;20057;-67
2024/02/28 03:07:57;;;;;;;22.70;17.05;;;;;;;9.54;60.90;94950.63;4244215;27;20114;-68
2024/02/28 03:09:59;;;;;;;23.73;16.83;;;;;;;9.55;61.08;94949.63;4236938;27;20043;-70
2024/02/28 03:12:01;;;;;;;22.75;15.77;;;;;;;9.57;61.06;94950.31;4244214;27;20047;-70
2024/02/28 03:14:03;;;;;;;26.23;16.13;;;;;;;9.56;60.39;94946.06;4244076;27;20115;-69
2024/02/28 03:16:05;;;;;;;21.90;16.33;;;;;;;9.58;60.77;94952.78;4243405;27;20047;-69
2024/02/28 03:18:07;;;;;;;20.90;16.33;;;;;;;9.51;60.68;94948.31;4235199;27;20411;-69
2024/02/28 03:20:09;;;;;;;20.25;15.80;;;;;;;9.55;61.00;94954.88;4244996;27;20051;-69
2024/02/28 03:22:11;;;;;;;22.85;15.82;;;;;;;9.45;60.46;94960.16;4242708;27;20100;-69
2024/02/28 03:24:13;;;;;;;25.33;15.95;;;;;;;9.32;61.19;94954.47;4243391;27;20154;-69
2024/02/28 03:26:15;;;;;;;23.58;15.32;;;;;;;9.15;61.34;94956.03;4239438;27;20050;-69
2024/02/28 03:28:17;;;;;;;27.40;15.27;;;;;;;9.04;61.96;94962.28;4243968;27;20057;-68
2024/02/28 03:30:19;;;;;;;20.95;15.23;;;;;;;9.00;62.09;94960.91;4239860;27;20357;-70
2024/02/28 03:32:21;;;;;;;22.80;16.25;;;;;;;9.00;61.72;94956.50;4244117;27;20047;-71
2024/02/28 03:34:23;;;;;;;25.20;16.08;;;;;;;9.03;62.48;94965.84;4240621;27;20101;-69
2024/02/28 03:36:25;;;;;;;24.15;15.32;;;;;;;8.99;62.07;94961.84;4237175;27;20047;-68
2024/02/28 03:38:27;;;;;;;22.48;15.43;;;;;;;9.00;61.94;94961.72;4244101;27;20500;-68
2024/02/28 03:40:28;;;;;;;25.88;16.10;;;;;;;9.05;61.45;94973.53;4244474;27;20062;-70
2024/02/28 03:42:30;;;;;;;26.45;16.35;;;;;;;9.07;62.24;94969.81;4243151;27;20620;-68
2024/02/28 03:44:32;;;;;;;22.35;15.63;;;;;;;9.10;61.77;94966.09;4238744;27;20055;-70
2024/02/28 03:46:34;;;;;;;24.63;17.08;;;;;;;9.12;61.90;94972.00;4243968;27;20567;-68
2024/02/28 03:48:36;;;;;;;25.10;15.73;;;;;;;9.17;61.94;94972.41;4244027;27;20169;-69
2024/02/28 03:50:38;;;;;;;24.52;16.60;;;;;;;9.10;61.84;94973.91;4243957;27;20409;-69
2024/02/28 03:52:39;;;;;;;25.38;17.70;;;;;;;8.97;62.31;94971.63;4242819;27;20078;-69
2024/02/28 03:54:45;;;;;;;27.35;19.55;;;;;;;8.88;62.58;94978.53;4239943;27;20054;-68
2024/02/28 03:56:47;;;;;;;29.00;21.40;;;;;;;8.85;63.14;94981.44;4241630;27;20565;-70
2024/02/28 03:58:48;;;;;;;31.65;19.90;;;;;;;8.83;63.30;94980.75;4233257;27;20043;-69
2024/02/28 04:00:50;;;;;;;29.15;20.33;;;;;;;8.80;63.55;94973.22;4236290;27;20047;-70
2024/02/28 04:02:52;;;;;;;29.00;20.67;;;;;;;8.82;62.80;94976.50;4243558;27;20070;-69
2024/02/28 04:04:54;;;;;;;27.63;19.20;;;;;;;8.82;63.62;94968.66;4242484;27;20047;-70
2024/02/28 04:06:56;;;;;;;24.15;19.83;;;;;;;8.87;63.28;94974.28;4243570;27;20039;-71
2024/02/28 04:08:58;;;;;;;30.42;20.65;;;;;;;8.96;63.56;94970.81;4244188;27;20502;-69
2024/02/28 04:11:00;;;;;;;30.38;19.85;;;;;;;9.00;62.99;94966.94;4244240;27;20132;-69
2024/02/28 04:13:02;;;;;;;27.98;20.08;;;;;;;9.07;62.72;94972.44;4223616;28;20134;-70
2024/02/28 04:15:04;;;;;;;26.58;20.33;;;;;;;9.10;62.79;94960.84;4243170;27;20152;-71
2024/02/28 04:17:06;;;;;;;26.90;19.60;;;;;;;9.02;62.33;94959.78;4243516;27;20087;-69
2024/02/28 04:19:08;;;;;;;27.02;19.55;;;;;;;9.02;62.78;94969.44;4241722;27;20047;-69
2024/02/28 04:21:10;;;;;;;31.20;20.45;;;;;;;9.07;63.07;94969.00;4241845;27;20043;-69
2024/02/28 04:23:12;;;;;;;31.50;20.80;;;;;;;9.11;62.24;94963.34;4243044;27;20047;-69
2024/02/28 04:25:14;;;;;;;28.63;20.90;;;;;;;9.15;62.19;94964.69;4244291;27;20061;-69
2024/02/28 04:27:16;;;;;;;32.72;21.95;;;;;;;9.16;62.51;94960.28;4225768;27;20048;-70
2024/02/28 04:29:17;;;;;;;31.13;20.52;;;;;;;9.13;62.47;94964.00;4212912;28;20452;-70
2024/02/28 04:31:19;;;;;;;29.70;20.63;;;;;;;9.13;62.21;94963.19;4243911;27;20043;-71
2024/02/28 04:33:22;;;;;;;37.38;21.10;;;;;;;9.04;62.49;94966.69;4236124;27;20097;-72
2024/02/28 04:35:24;;;;;;;32.28;21.33;;;;;;;8.97;62.79;94961.19;4236132;27;20095;-70
2024/02/28 04:37:26;;;;;;;28.88;21.17;;;;;;;8.91;62.67;94962.59;4234138;27;20047;-69
2024/02/28 04:39:28;;;;;;;32.05;21.50;;;;;;;8.89;63.71;94971.53;4225100;28;20044;-69
2024/02/28 04:41:30;;;;;;;31.92;21.48;;;;;;;8.90;63.45;94974.00;4241117;27;20136;-68
2024/02/28 04:43:32;;;;;;;34.40;21.05;;;;;;;8.96;63.45;94962.97;4240070;27;20091;-68
2024/02/28 04:45:33;;;;;;;28.42;20.35;;;;;;;8.97;63.14;94967.25;4240238;27;20054;-70
2024/02/28 04:47:37;;;;;;;29.23;20.15;;;;;;;9.01;63.25;94967.75;4234456;27;20047;-69
2024/02/28 04:49:45;;;;;;;30.67;20.73;;;;;;;8.96;63.46;94978.66;4241844;27;20076;-70
2024/02/28 04:51:47;;;;;;;32.97;21.13;;;;;;;8.87;63.67;94971.66;4242368;27;20088;-68
2024/02/28 04:53:49;;;;;;;44.33;21.45;;;;;;;8.77;63.48;94973.47;4206668;28;20040;-70
2024/02/28 04:55:51;;;;;;;30.30;19.65;;;;;;;8.61;64.08;94981.91;4243910;27;20455;-70
2024/02/28 04:57:53;;;;;;;37.45;21.38;;;;;;;8.18;64.96;94991.78;4224414;28;20143;-70
2024/02/28 04:59:55;;;;;;;30.58;21.30;;;;;;;8.16;65.69;94987.69;4241178;27;20222;-68
2024/02/28 05:01:57;;;;;;;33.03;22.52;;;;;;;7.95;65.71;94982.56;4242967;27;20505;-69
2024/02/28 05:03:59;;;;;;;29.70;20.02;;;;;;;7.70;66.78;94982.13;4215096;28;20124;-70
2024/02/28 05:06:01;;;;;;;32.60;21.67;;;;;;;7.82;67.08;94992.44;4236192;27;20043;-69
2024/02/28 05:08:04;;;;;;;29.17;21.90;;;;;;;7.96;66.62;94992.06;4240171;27;20051;-71
2024/02/28 05:10:07;;;;;;;28.00;20.48;;;;;;;8.13;66.10;94990.53;4243243;27;20047;-69
2024/02/28 05:12:09;;;;;;;33.63;21.98;;;;;;;8.24;66.12;94994.81;4241852;27;20046;-70
2024/02/28 05:14:11;;;;;;;37.80;22.35;;;;;;;8.28;66.01;95001.41;4243119;27;20047;-71
2024/02/28 05:16:16;;;;;;;31.70;21.88;;;;;;;8.28;65.61;95007.47;4241041;28;20053;-72
2024/02/28 05:18:18;;;;;;;30.73;21.95;;;;;;;8.29;65.18;95005.66;4239708;27;20072;-70
2024/02/28 05:20:19;;;;;;;38.30;23.98;;;;;;;8.35;65.27;95005.13;4242812;28;20079;-68
2024/02/28 05:22:21;;;;;;;33.15;23.75;;;;;;;8.40;65.01;95013.34;4241088;28;20039;-69
2024/02/28 05:24:23;;;;;;;32.55;22.20;;;;;;;8.44;65.06;95009.53;4238355;28;20514;-70
2024/02/28 05:26:25;;;;;;;36.50;25.58;;;;;;;8.16;64.77;95011.97;4241193;28;20051;-73
2024/02/28 05:28:28;;;;;;;41.83;25.88;;;;;;;7.90;66.26;95010.88;4243119;27;20452;-71
2024/02/28 05:30:30;;;;;;;40.40;26.33;;;;;;;7.83;67.08;95013.19;4238905;27;20109;-72
2024/02/28 05:32:32;;;;;;;36.28;26.15;;;;;;;7.90;67.73;95016.06;4243004;27;20075;-71
2024/02/28 05:34:35;;;;;;;41.90;27.70;;;;;;;7.78;67.46;95023.19;4244917;27;20051;-71
2024/02/28 05:36:36;;;;;;;37.65;26.23;;;;;;;7.80;67.33;95024.69;4246742;27;20055;-70
2024/02/28 05:38:38;;;;;;;42.60;27.88;;;;;;;7.94;67.08;95025.28;4236693;27;20054;-69
2024/02/28 05:40:43;;;;;;;42.70;28.38;;;;;;;8.06;67.05;95034.63;4244832;27;20430;-69
2024/02/28 05:42:45;;;;;;;39.42;27.63;;;;;;;8.21;66.57;95032.44;4246241;27;20066;-71
2024/02/28 05:44:48;;;;;;;37.85;29.00;;;;;;;8.34;65.65;95037.41;4246408;27;20476;-70
2024/02/28 05:46:50;;;;;;;45.38;31.73;;;;;;;8.14;66.12;95029.56;4240618;27;20316;-71
2024/02/28 05:48:52;;;;;;;40.42;30.27;;;;;;;8.04;67.06;95035.72;4236694;27;20519;-72
2024/02/28 05:50:54;;;;;;;44.63;30.77;;;;;;;8.08;66.54;95045.75;4236888;27;20090;-69
2024/02/28 05:52:56;;;;;;;47.50;30.88;;;;;;;8.21;66.48;95037.66;4246327;27;20180;-70
2024/02/28 05:54:58;;;;;;;43.33;30.75;;;;;;;8.35;66.26;95041.66;4227595;28;20479;-73
2024/02/28 05:57:00;;;;;;;47.63;32.35;;;;;;;8.45;65.85;95045.13;4226620;28;20084;-71
2024/02/28 05:59:02;;;;;;;50.03;32.03;;;;;;;8.44;66.13;95043.47;4239184;27;20059;-70
2024/02/28 06:01:04;;;;;;;47.90;31.38;;;;;;;8.45;66.17;95046.91;4237084;27;20100;-71
2024/02/28 06:03:06;;;;;;;46.53;31.45;;;;;;;8.61;65.92;95049.81;4235223;27;20079;-71
2024/02/28 06:05:08;;;;;;;43.58;30.85;;;;;;;8.67;65.76;95049.25;4244980;27;20043;-70
2024/02/28 06:07:10;;;;;;;48.78;30.60;;;;;;;8.82;65.07;95050.47;4227629;28;20054;-70
2024/02/28 06:09:12;;;;;;;46.00;31.17;;;;;;;9.04;64.29;95055.53;4245589;27;20094;-71
2024/02/28 06:11:14;;;;;;;45.85;29.38;;;;;;;9.23;64.56;95051.06;4245789;27;20054;-72
2024/02/28 06:13:16;;;;;;;42.95;30.10;;;;;;;9.38;63.84;95055.84;4241167;27;20047;-70
2024/02/28 06:15:18;;;;;;;45.00;30.13;;;;;;;9.54;63.59;95052.63;4226401;28;20054;-71
2024/02/28 06:17:21;;;;;;;43.22;30.63;;;;;;;9.64;62.77;95056.84;4242222;27;20085;-70
2024/02/28 06:19:24;;;;;;;43.10;31.45;;;;;;;9.69;62.76;95055.59;4234993;27;20044;-73
2024/02/28 06:21:25;;;;;;;54.47;32.65;;;;;;;9.75;62.55;95055.81;4244829;27;20475;-70
2024/02/28 06:23:28;;;;;;;48.30;34.25;;;;;;;9.67;62.39;95066.19;4225563;28;20047;-70
2024/02/28 06:25:33;;;;;;;44.85;32.22;;;;;;;9.67;62.89;95057.53;4223700;27;20104;-70
2024/02/28 06:27:35;;;;;;;43.95;30.75;;;;;;;9.70;63.09;95067.69;4239501;27;20051;-70
2024/02/28 06:29:37;;;;;;;42.05;29.00;;;;;;;9.76;62.94;95057.47;4237508;27;20084;-72
2024/02/28 06:31:39;;;;;;;41.22;28.10;;;;;;;9.93;63.46;95062.91;4246357;27;20043;-70
2024/02/28 06:33:41;;;;;;;48.97;31.05;;;;;;;9.96;62.84;95062.59;4244258;27;20070;-69
2024/02/28 06:35:43;;;;;;;54.45;29.30;;;;;;;10.03;62.58;95067.09;4244507;27;20054;-72
2024/02/28 06:37:49;;;;;;;46.55;29.63;;;;;;;10.18;62.29;95062.19;4245254;27;20046;-70
2024/02/28 06:39:52;;;;;;;37.90;26.80;;;;;;;10.31;62.00;95061.06;4238243;27;20539;-70
2024/02/28 06:41:54;;;;;;;36.00;25.73;;;;;;;10.44;61.45;95058.88;4242424;27;20043;-70
2024/02/28 06:43:56;;;;;;;36.60;26.17;;;;;;;10.55;61.08;95066.53;4236782;27;20303;-70
2024/02/28 06:45:58;;;;;;;40.75;25.20;;;;;;;10.70;61.40;95063.38;4243448;27;20520;-70
2024/02/28 06:48:00;;;;;;;36.42;25.40;;;;;;;10.75;60.66;95071.59;4245277;27;20499;-72
2024/02/28 06:50:06;;;;;;;38.10;25.10;;;;;;;10.74;60.41;95068.16;4233719;27;20050;-71
2024/02/28 06:52:08;;;;;;;36.22;24.38;;;;;;;10.74;60.10;95070.78;4243124;27;20053;-70
2024/02/28 06:54:10;;;;;;;34.10;23.65;;;;;;;10.81;59.89;95069.19;4245083;27;20665;-69
2024/02/28 06:56:12;;;;;;;33.08;23.70;;;;;;;10.90;59.38;95069.28;4238750;27;20070;-71
2024/02/28 06:58:14;;;;;;;43.10;25.45;;;;;;;10.81;60.01;95068.38;4239699;27;20369;-73
2024/02/28 07:00:18;;;;;;;43.95;24.77;;;;;;;10.80;59.92;95075.44;4225471;28;20832;-67
2024/02/28 07:02:20;;;;;;;35.35;24.23;;;;;;;10.62;60.31;95064.13;4241508;27;20150;-71
2024/02/28 07:04:22;;;;;;;35.75;25.48;;;;;;;10.59;60.39;95067.88;4244545;27;20043;-70
2024/02/28 07:06:24;;;;;;;37.97;26.20;;;;;;;10.61;60.63;95067.72;4233675;27;20130;-73
2024/02/28 07:08:26;;;;;;;35.85;22.88;;;;;;;10.73;60.31;95069.13;4245190;27;20157;-70
2024/02/28 07:10:28;;;;;;;37.15;23.67;;;;;;;10.90;59.84;95066.66;4238418;27;20557;-70
2024/02/28 07:12:30;;;;;;;31.58;23.02;;;;;;;11.08;59.74;95067.47;4240190;27;20377;-72
2024/02/28 07:14:32;;;;;;;35.03;24.13;;;;;;;11.18;59.25;95059.47;4223731;28;20044;-73
2024/02/28 07:16:34;;;;;;;33.08;23.05;;;;;;;11.27;58.91;95069.03;4236673;27;20390;-72
2024/02/28 07:18:36;;;;;;;30.58;21.55;;;;;;;11.36;58.63;95064.69;4242173;27;20055;-69
2024/02/28 07:20:38;;;;;;;31.60;22.60;;;;;;;11.18;57.78;95064.72;4243347;27;20076;-70
2024/02/28 07:22:43;;;;;;;36.55;23.33;;;;;;;10.61;59.23;95068.53;4243181;27;20406;-72
2024/02/28 07:24:44;;;;;;;35.10;22.70;;;;;;;10.49;60.25;95069.72;4218689;28;20055;-70
2024/02/28 07:26:47;;;;;;;32.80;22.58;;;;;;;10.54;60.63;95074.53;4244535;27;20095;-72
2024/02/28 07:28:51;;;;;;;37.90;23.88;;;;;;;10.66;60.57;95063.66;4243895;27;20053;-71
2024/02/28 07:30:53;;;;;;;35.78;23.98;;;;;;;10.52;60.78;95074.69;4239988;27;20463;-74
2024/02/28 07:32:55;;;;;;;41.75;22.20;;;;;;;10.55;60.46;95068.31;4243964;27;20436;-72
2024/02/28 07:34:57;;;;;;;31.00;22.33;;;;;;;10.23;61.73;95065.19;4208683;28;20622;-72
2024/02/28 07:36:59;;;;;;;33.25;22.92;;;;;;;10.44;61.83;95072.00;4231151;27;20087;-71
2024/02/28 07:39:02;;;;;;;33.88;23.30;;;;;;;10.46;61.52;95067.41;4244429;27;20091;-72
2024/02/28 07:41:04;;;;;;;29.45;22.10;;;;;;;10.35;61.46;95067.66;4243868;27;20479;-71
2024/02/28 07:43:06;;;;;;;33.63;23.02;;;;;;;10.44;61.82;95072.81;4220722;28;20044;-71
2024/02/28 07:45:08;;;;;;;36.05;23.05;;;;;;;10.65;61.63;95064.66;4236287;27;20145;-71
2024/02/28 07:47:10;;;;;;;31.42;22.83;;;;;;;10.96;60.53;95068.66;4229960;27;20067;-72
2024/02/28 07:49:13;;;;;;;37.42;24.60;;;;;;;11.10;59.85;95062.03;4228440;27;20069;-72
2024/02/28 07:51:15;;;;;;;33.45;23.98;;;;;;;11.25;59.27;95071.00;4233461;27;20167;-70
2024/02/28 07:53:17;;;;;;;38.50;23.30;;;;;;;11.40;59.46;95068.63;4208813;28;20075;-70
2024/02/28 07:55:21;;;;;;;40.20;24.05;;;;;;;11.56;58.64;95075.78;4235800;27;20077;-73
2024/02/28 07:57:23;;;;;;;35.53;24.17;;;;;;;11.75;58.13;95072.94;4238071;27;20134;-71
2024/02/28 07:59:25;;;;;;;30.50;22.75;;;;;;;12.03;57.74;95064.88;4239940;27;20054;-70
2024/02/28 08:01:27;;;;;;;34.78;23.10;;;;;;;12.33;57.27;95062.66;4233236;27;20078;-73
2024/02/28 08:03:29;;;;;;;32.60;22.67;;;;;;;12.60;56.05;95069.44;4240304;27;20122;-71
2024/02/28 08:05:33;;;;;;;35.17;21.90;;;;;;;12.88;55.33;95068.16;4215068;28;20052;-74
2024/02/28 08:07:35;;;;;;;32.08;22.52;;;;;;;13.03;54.27;95072.75;4239733;27;20073;-71
2024/02/28 08:09:36;;;;;;;38.35;22.77;;;;;;;13.18;54.34;95070.25;4244047;27;20077;-72
2024/02/28 08:11:38;;;;;;;39.70;23.98;;;;;;;13.15;53.76;95060.91;4218746;28;20558;-71
2024/02/28 08:13:40;;;;;;;38.33;24.48;;;;;;;13.01;53.92;95067.63;4243881;27;20134;-71
2024/02/28 08:15:42;;;;;;;31.90;22.48;;;;;;;12.70;54.76;95062.22;4243356;27;20055;-70
2024/02/28 08:17:44;;;;;;;33.72;23.10;;;;;;;12.46;55.16;95060.38;4240781;27;20043;-70
2024/02/28 08:19:46;;;;;;;34.25;23.90;;;;;;;12.18;56.08;95058.03;4225262;28;20399;-72
2024/02/28 08:21:48;;;;;;;32.35;21.85;;;;;;;11.63;57.25;95064.50;4242060;27;20051;-72
2024/02/28 08:23:50;;;;;;;36.50;23.27;;;;;;;11.26;58.28;95068.22;4243787;27;20489;-70
2024/02/28 08:25:52;;;;;;;33.17;22.50;;;;;;;11.46;58.61;95060.97;4232738;27;20047;-69
2024/02/28 08:27:54;;;;;;;41.60;25.92;;;;;;;11.66;57.98;95060.75;4242871;27;20053;-73
2024/02/28 08:29:56;;;;;;;38.35;23.55;;;;;;;11.69;57.48;95056.00;4240041;27;20047;-73
2024/02/28 08:31:58;;;;;;;32.47;22.40;;;;;;;11.85;57.34;95055.25;4236056;27;20050;-72
2024/02/28 08:34:03;;;;;;;33.63;22.50;;;;;;;12.11;57.19;95046.53;4236545;27;20327;-72
2024/02/28 08:36:05;;;;;;;34.63;23.23;;;;;;;12.24;55.84;95043.44;4243468;27;20126;-70
2024/02/28 08:38:07;;;;;;;31.38;22.50;;;;;;;12.37;56.00;95048.19;4237105;27;20495;-72
2024/02/28 08:40:09;;;;;;;34.53;23.45;;;;;;;12.64;55.60;95057.59;4243925;27;20571;-70
2024/02/28 08:42:12;;;;;;;32.25;23.35;;;;;;;12.86;55.32;95053.50;4242850;27;20058;-69
2024/02/28 08:44:14;;;;;;;38.50;23.38;;;;;;;12.93;54.35;95057.13;4221529;28;20131;-71
2024/02/28 08:46:16;;;;;;;36.70;24.27;;;;;;;13.10;54.59;95050.88;4222792;28;20071;-71
2024/02/28 08:48:18;;;;;;;29.27;22.45;;;;;;;13.26;54.11;95050.03;4242796;27;20047;-71
2024/02/28 08:50:20;;;;;;;32.60;22.73;;;;;;;13.23;54.17;95050.38;4242059;27;20456;-72
2024/02/28 08:52:23;;;;;;;35.60;23.15;;;;;;;13.35;53.93;95035.09;4238394;27;20040;-72
2024/02/28 08:54:25;;;;;;;32.20;22.67;;;;;;;13.56;53.79;95041.63;4218173;28;20040;-70
2024/02/28 08:56:27;;;;;;;34.40;23.08;;;;;;;13.84;52.85;95031.50;4242706;27;20470;-70
2024/02/28 08:58:29;;;;;;;35.70;22.55;;;;;;;14.02;52.15;95032.03;4242111;27;20058;-70
2024/02/28 09:00:31;;;;;;;38.75;22.85;;;;;;;14.11;51.46;95032.81;4242785;27;20074;-71
2024/02/28 09:02:33;;;;;;;33.78;22.17;;;;;;;14.08;51.98;95038.47;4243227;27;20531;-72
2024/02/28 09:04:35;;;;;;;38.28;23.60;;;;;;;14.04;52.25;95039.78;4237711;27;20058;-72
2024/02/28 09:06:37;;;;;;;41.13;25.52;;;;;;;13.87;52.52;95044.31;4242585;27;20083;-73
2024/02/28 09:08:39;;;;;;;31.40;24.20;;;;;;;14.07;52.39;95042.09;4236800;27;20144;-72
2024/02/28 09:10:41;;;;;;;37.30;23.27;;;;;;;14.20;51.34;95046.81;4217637;28;20402;-73
2024/02/28 09:12:43;;;;;;;34.45;22.88;;;;;;;14.28;51.67;95044.09;4238456;27;20078;-71
2024/02/28 09:14:45;;;;;;;36.38;25.65;;;;;;;14.48;51.41;95042.69;4222966;28;20047;-72
2024/02/28 09:16:47;;;;;;;37.95;23.70;;;;;;;14.60;51.08;95048.38;4243579;27;20054;-73
2024/02/28 09:18:49;;;;;;;37.00;25.67;;;;;;;14.41;50.81;95051.44;4224901;28;20113;-74
2024/02/28 09:20:51;;;;;;;39.60;23.58;;;;;;;14.23;51.56;95042.00;4242795;28;20100;-73
2024/02/28 09:22:53;;;;;;;34.25;25.33;;;;;;;14.07;52.00;95028.94;4236107;28;20043;-73
2024/02/28 09:24:55;;;;;;;35.33;24.17;;;;;;;13.92;52.11;95032.28;4225396;28;20055;-72